Terminal Aerodrome Forecast
Issued by NWS Brownsville, TX

Home | Current Version | Previous Version | Text Only | Print | Product List | Glossary On
Versions: 1 2 3 4 5 6 7 8 9 10 11 12 13 14 15
549
FTUS44 KBRO 251233 AAA
TAFMFE
TAF AMD
KMFE 251233Z 2513/2612 14005KT 3SM HZ SCT250
     FM251400 15010G18KT P6SM FEW040 SCT250
     FM251800 13019G24KT P6SM SCT040 SCT250
     FM260300 14013KT P6SM SCT030 BKN250
     FM260600 16007KT P6SM SCT020 OVC250=

USA.gov is the U.S. government's official web portal to all federal, state and local government web resources and services.